Time;durP1;ratioP1;P1;durP2;ratioP2;P2;SDS_P1;SDS_P2;PMS_P1;PMS_P2;Temp;Humidity;BMP_temperature;BMP_pressure;BME280_temperature;BME280_humidity;BME280_pressure;Samples;Min_cycle;Max_cycle;Signal;HPM_P1;HPM_P2
2023/07/03 00:01:58;;;;;;;;;1.67;1.00;;;;;;;;5079029;27;45420;-85
2023/07/03 00:04:23;;;;;;;;;2.00;0.00;;;;;;;;5078820;27;46288;-85
2023/07/03 00:06:49;;;;;;;;;0.75;0.00;;;;;;;;5078496;27;45337;-85
2023/07/03 00:09:14;;;;;;;;;0.00;0.00;;;;;;;;5078849;27;45296;-85
2023/07/03 00:11:39;;;;;;;;;1.00;0.00;;;;;;;;5078884;27;45508;-85
2023/07/03 00:14:04;;;;;;;;;2.00;1.00;;;;;;;;5076914;28;48380;-85
2023/07/03 00:16:29;;;;;;;;;2.00;1.00;;;;;;;;5078805;27;45386;-85
2023/07/03 00:18:55;;;;;;;;;2.00;0.00;;;;;;;;5078784;27;45335;-85
2023/07/03 00:21:20;;;;;;;;;0.67;0.00;;;;;;;;5078246;27;45552;-86
2023/07/03 00:23:46;;;;;;;;;0.00;0.00;;;;;;;;5078597;27;45375;-84
2023/07/03 00:26:11;;;;;;;;;2.50;1.00;;;;;;;;5078501;27;45425;-84
2023/07/03 00:28:36;;;;;;;;;2.00;0.00;;;;;;;;5078321;27;45494;-84
2023/07/03 00:31:01;;;;;;;;;3.00;1.00;;;;;;;;5078622;28;45461;-85
2023/07/03 00:33:26;;;;;;;;;2.00;0.67;;;;;;;;5078364;28;46646;-85
2023/07/03 00:35:51;;;;;;;;;2.00;0.00;;;;;;;;5077989;28;45378;-85
2023/07/03 00:38:17;;;;;;;;;7.00;1.33;;;;;;;;5078615;28;45401;-85
2023/07/03 00:40:42;;;;;;;;;1.00;1.00;;;;;;;;5078321;28;45391;-84
2023/07/03 00:43:07;;;;;;;;;1.67;0.00;;;;;;;;5077906;28;45398;-86
2023/07/03 00:45:33;;;;;;;;;3.00;1.67;;;;;;;;5076928;28;45947;-85
2023/07/03 00:47:58;;;;;;;;;2.00;1.00;;;;;;;;5078175;27;45809;-84
2023/07/03 00:50:23;;;;;;;;;2.00;1.00;;;;;;;;5078060;27;45287;-85
2023/07/03 00:52:51;;;;;;;;;1.25;0.00;;;;;;;;5078137;27;46040;-86
2023/07/03 00:55:17;;;;;;;;;2.00;0.00;;;;;;;;5077395;27;45225;-85
2023/07/03 00:57:42;;;;;;;;;0.00;0.00;;;;;;;;5077890;27;45406;-85
2023/07/03 01:00:09;;;;;;;;;3.00;1.00;;;;;;;;5078143;28;45273;-85
2023/07/03 01:02:37;;;;;;;;;2.75;1.00;;;;;;;;5077773;28;47265;-84
2023/07/03 01:05:07;;;;;;;;;2.50;1.00;;;;;;;;5077770;28;45695;-85
2023/07/03 01:07:34;;;;;;;;;0.50;0.50;;;;;;;;5077985;28;45337;-85
2023/07/03 01:10:01;;;;;;;;;0.25;0.25;;;;;;;;5077980;28;45377;-85
2023/07/03 01:12:28;;;;;;;;;1.25;1.00;;;;;;;;5077344;28;45629;-85
2023/07/03 01:14:56;;;;;;;;;2.00;1.00;;;;;;;;5077477;27;45662;-84
2023/07/03 01:17:22;;;;;;;;;3.75;0.75;;;;;;;;5077740;27;45296;-84
2023/07/03 01:19:48;;;;;;;;;2.75;1.50;;;;;;;;5077604;27;45348;-85
2023/07/03 01:22:36;;;;;;;;;2.25;1.25;;;;;;;;5077228;27;46276;-85
2023/07/03 01:25:04;;;;;;;;;1.25;1.00;;;;;;;;5077577;28;45540;-84
2023/07/03 01:27:31;;;;;;;;;2.00;1.00;;;;;;;;5077660;28;45406;-85
2023/07/03 01:29:57;;;;;;;;;1.00;1.00;;;;;;;;5077695;28;45311;-85
2023/07/03 01:32:24;;;;;;;;;1.00;0.75;;;;;;;;5077100;28;46070;-85
2023/07/03 01:34:53;;;;;;;;;1.00;1.00;;;;;;;;5077472;28;45382;-85
2023/07/03 01:37:18;;;;;;;;;1.75;1.00;;;;;;;;5075951;28;45378;-85
2023/07/03 01:39:45;;;;;;;;;3.00;1.00;;;;;;;;5077537;27;45342;-84
2023/07/03 01:42:11;;;;;;;;;4.50;1.00;;;;;;;;5077401;27;46653;-84
2023/07/03 01:44:36;;;;;;;;;2.00;1.00;;;;;;;;5077375;27;45760;-85
2023/07/03 01:47:03;;;;;;;;;1.00;1.00;;;;;;;;5076883;27;45397;-85
2023/07/03 01:49:28;;;;;;;;;1.00;1.00;;;;;;;;5077266;27;45275;-85
2023/07/03 01:52:03;;;;;;;;;2.00;2.00;;;;;;;;5075418;28;46285;-85
2023/07/03 01:54:51;;;;;;;;;3.00;1.00;;;;;;;;5077037;28;45761;-85
2023/07/03 01:57:22;;;;;;;;;1.00;1.00;;;;;;;;5073668;28;45327;-85
2023/07/03 01:59:51;;;;;;;;;3.50;1.25;;;;;;;;5075920;28;45406;-85
2023/07/03 02:02:21;;;;;;;;;2.00;2.00;;;;;;;;5076518;28;45499;-85
2023/07/03 02:04:52;;;;;;;;;2.00;1.00;;;;;;;;5077146;27;45347;-85
2023/07/03 02:07:18;;;;;;;;;1.00;1.00;;;;;;;;5076750;28;45407;-85
2023/07/03 02:09:44;;;;;;;;;2.00;0.75;;;;;;;;5076675;27;45330;-84
2023/07/03 02:12:11;;;;;;;;;2.00;1.25;;;;;;;;5075434;28;48204;-85
2023/07/03 02:14:36;;;;;;;;;1.00;0.50;;;;;;;;5075492;28;45692;-85
2023/07/03 02:17:02;;;;;;;;;1.50;1.50;;;;;;;;5076578;27;45256;-85
2023/07/03 02:19:31;;;;;;;;;1.00;1.00;;;;;;;;5076871;27;45279;-85
2023/07/03 02:21:57;;;;;;;;;2.00;2.00;;;;;;;;5076501;28;46203;-85
2023/07/03 02:24:22;;;;;;;;;4.50;2.00;;;;;;;;5076391;28;45498;-85
2023/07/03 02:26:48;;;;;;;;;1.00;1.00;;;;;;;;5076729;28;45437;-84
2023/07/03 02:29:13;;;;;;;;;2.00;1.00;;;;;;;;5076777;28;45523;-85
2023/07/03 02:31:38;;;;;;;;;2.00;0.67;;;;;;;;5076403;28;46254;-84
2023/07/03 02:34:03;;;;;;;;;1.00;1.00;;;;;;;;5076373;28;45352;-85
2023/07/03 02:36:32;;;;;;;;;2.00;0.00;;;;;;;;5075231;28;45340;-85
2023/07/03 02:38:58;;;;;;;;;4.25;1.00;;;;;;;;5076128;28;45378;-84
2023/07/03 02:41:23;;;;;;;;;2.00;1.00;;;;;;;;5076345;27;46314;-85
2023/07/03 02:43:48;;;;;;;;;3.00;1.00;;;;;;;;5076345;27;45738;-85
2023/07/03 02:46:13;;;;;;;;;3.25;1.00;;;;;;;;5075929;27;45268;-85
2023/07/03 02:48:39;;;;;;;;;1.33;1.00;;;;;;;;5076344;27;45362;-85
2023/07/03 02:51:05;;;;;;;;;3.75;0.75;;;;;;;;5076381;27;46462;-85
2023/07/03 02:53:30;;;;;;;;;2.00;1.00;;;;;;;;5075972;27;45473;-85
2023/07/03 02:55:55;;;;;;;;;1.67;1.00;;;;;;;;5076164;28;45304;-84
2023/07/03 02:58:20;;;;;;;;;2.00;1.00;;;;;;;;5076353;28;45418;-85
2023/07/03 03:00:46;;;;;;;;;1.67;1.00;;;;;;;;5075375;28;46779;-85
2023/07/03 03:03:13;;;;;;;;;4.00;2.75;;;;;;;;5076042;28;45375;-85
2023/07/03 03:05:38;;;;;;;;;2.25;2.00;;;;;;;;5076252;28;45407;-84
2023/07/03 03:08:04;;;;;;;;;2.67;1.00;;;;;;;;5075820;28;45367;-85
2023/07/03 03:10:29;;;;;;;;;2.00;1.00;;;;;;;;5075750;27;45354;-85
2023/07/03 03:12:54;;;;;;;;;4.00;2.00;;;;;;;;5075927;27;45536;-85
2023/07/03 03:15:19;;;;;;;;;2.00;2.00;;;;;;;;5075602;27;45399;-85
2023/07/03 03:17:45;;;;;;;;;4.00;2.00;;;;;;;;5075601;27;45426;-85
2023/07/03 03:20:11;;;;;;;;;2.50;2.00;;;;;;;;5074132;28;47971;-85
2023/07/03 03:22:36;;;;;;;;;1.25;1.00;;;;;;;;5076116;28;45391;-85
2023/07/03 03:25:01;;;;;;;;;5.33;1.33;;;;;;;;5076009;28;45486;-85
2023/07/03 03:27:27;;;;;;;;;1.50;1.00;;;;;;;;5075765;27;45379;-85
2023/07/03 03:29:52;;;;;;;;;2.00;2.00;;;;;;;;5075731;28;45909;-85
2023/07/03 03:32:17;;;;;;;;;2.33;0.67;;;;;;;;5075941;28;45535;-85
2023/07/03 03:34:42;;;;;;;;;3.00;2.00;;;;;;;;5075545;28;45228;-85
2023/07/03 03:37:08;;;;;;;;;3.00;3.00;;;;;;;;5075631;28;45438;-85
2023/07/03 03:39:33;;;;;;;;;7.00;2.00;;;;;;;;5075572;27;46366;-85
2023/07/03 03:41:58;;;;;;;;;4.00;2.00;;;;;;;;5074384;28;45477;-85
2023/07/03 03:44:23;;;;;;;;;3.33;1.00;;;;;;;;5075527;28;45346;-85
2023/07/03 03:46:51;;;;;;;;;2.33;2.00;;;;;;;;5075553;27;45200;-85
2023/07/03 03:49:16;;;;;;;;;3.75;1.00;;;;;;;;5075256;27;45699;-84
2023/07/03 03:51:41;;;;;;;;;3.00;2.00;;;;;;;;5075530;27;45379;-85
2023/07/03 03:54:07;;;;;;;;;2.33;2.00;;;;;;;;5075651;27;45390;-85
2023/07/03 03:56:32;;;;;;;;;3.25;2.00;;;;;;;;5075221;28;45371;-85
2023/07/03 03:58:57;;;;;;;;;2.00;2.00;;;;;;;;5075141;28;45367;-85
2023/07/03 04:01:22;;;;;;;;;1.00;1.00;;;;;;;;5075352;28;45608;-84
2023/07/03 04:03:48;;;;;;;;;3.00;2.00;;;;;;;;5075548;28;45370;-85
2023/07/03 04:06:14;;;;;;;;;7.00;2.00;;;;;;;;5075148;28;45347;-84
2023/07/03 04:08:39;;;;;;;;;4.25;3.00;;;;;;;;5075130;27;46426;-85
2023/07/03 04:11:04;;;;;;;;;7.00;2.00;;;;;;;;5075305;27;45423;-84
2023/07/03 04:13:29;;;;;;;;;2.00;2.00;;;;;;;;5074847;27;45376;-85
2023/07/03 04:15:54;;;;;;;;;3.33;1.67;;;;;;;;5075387;27;45374;-85
2023/07/03 04:18:20;;;;;;;;;2.33;1.33;;;;;;;;5075289;27;46179;-85
2023/07/03 04:20:46;;;;;;;;;5.50;1.50;;;;;;;;5074550;27;45406;-85
2023/07/03 04:23:11;;;;;;;;;1.75;1.00;;;;;;;;5075199;27;45485;-85
2023/07/03 04:25:36;;;;;;;;;2.00;2.00;;;;;;;;5075128;27;45361;-85
2023/07/03 04:28:01;;;;;;;;;3.67;2.33;;;;;;;;5074645;27;46098;-85
2023/07/03 04:30:27;;;;;;;;;3.25;2.00;;;;;;;;5077998;27;45378;-85
2023/07/03 04:32:54;;;;;;;;;2.67;2.00;;;;;;;;5078418;27;45387;-85
2023/07/03 04:35:19;;;;;;;;;3.00;2.00;;;;;;;;5078551;28;45250;-85
2023/07/03 04:37:45;;;;;;;;;3.67;1.33;;;;;;;;5078252;28;46525;-84
2023/07/03 04:40:11;;;;;;;;;3.00;1.00;;;;;;;;5078251;27;45510;-85
2023/07/03 04:42:36;;;;;;;;;2.50;1.00;;;;;;;;5078038;28;45368;-84
2023/07/03 04:45:02;;;;;;;;;6.00;2.00;;;;;;;;5078448;28;45493;-85
2023/07/03 04:47:27;;;;;;;;;4.00;3.00;;;;;;;;5077811;27;46657;-84
2023/07/03 04:49:55;;;;;;;;;8.33;2.00;;;;;;;;5078106;27;45471;-85
2023/07/03 04:52:23;;;;;;;;;3.25;2.50;;;;;;;;5078255;27;45372;-85
2023/07/03 04:54:48;;;;;;;;;4.75;1.00;;;;;;;;5077886;27;45440;-85
2023/07/03 04:57:13;;;;;;;;;5.67;2.00;;;;;;;;5077482;28;45688;-85
2023/07/03 04:59:38;;;;;;;;;2.00;1.00;;;;;;;;5078339;27;45288;-85
2023/07/03 05:02:04;;;;;;;;;3.00;2.50;;;;;;;;5077693;27;45345;-85
2023/07/03 05:04:29;;;;;;;;;2.00;1.00;;;;;;;;5078247;28;45269;-85
2023/07/03 05:06:54;;;;;;;;;2.00;1.67;;;;;;;;5077905;28;45494;-85
2023/07/03 05:09:19;;;;;;;;;1.00;1.00;;;;;;;;5078014;28;45295;-85
2023/07/03 05:11:48;;;;;;;;;2.00;2.00;;;;;;;;5077733;28;45271;-85
2023/07/03 05:14:13;;;;;;;;;2.00;2.00;;;;;;;;5077659;28;45411;-84
2023/07/03 05:16:39;;;;;;;;;2.33;1.00;;;;;;;;5077395;27;45509;-85
2023/07/03 05:19:04;;;;;;;;;1.00;1.00;;;;;;;;5077793;27;45420;-85
2023/07/03 05:21:29;;;;;;;;;3.67;1.33;;;;;;;;5077898;28;45357;-85
2023/07/03 05:23:54;;;;;;;;;2.00;2.00;;;;;;;;5077840;28;45467;-85
2023/07/03 05:26:19;;;;;;;;;2.00;2.00;;;;;;;;5077279;28;45383;-85
2023/07/03 05:28:45;;;;;;;;;2.33;1.67;;;;;;;;5077544;28;45429;-85
2023/07/03 05:31:10;;;;;;;;;1.67;1.33;;;;;;;;5077571;28;45463;-85
2023/07/03 05:33:35;;;;;;;;;6.33;2.33;;;;;;;;5075066;28;45676;-85
2023/07/03 05:36:02;;;;;;;;;2.67;1.00;;;;;;;;5076162;28;46438;-85
2023/07/03 05:38:28;;;;;;;;;4.50;2.00;;;;;;;;5077466;27;45730;-85
2023/07/03 05:40:54;;;;;;;;;3.75;1.50;;;;;;;;5077005;27;45317;-85
2023/07/03 05:43:20;;;;;;;;;1.00;1.00;;;;;;;;5076218;28;45332;-84
2023/07/03 05:45:48;;;;;;;;;2.00;2.00;;;;;;;;5077258;28;45303;-85
2023/07/03 05:48:14;;;;;;;;;4.75;1.00;;;;;;;;5077202;27;45675;-85
2023/07/03 05:50:39;;;;;;;;;5.00;2.00;;;;;;;;5076916;27;45355;-85
2023/07/03 05:53:04;;;;;;;;;7.00;1.00;;;;;;;;5077443;27;45501;-85
2023/07/03 05:55:30;;;;;;;;;3.33;2.00;;;;;;;;5076561;27;46488;-85
2023/07/03 05:57:55;;;;;;;;;4.00;2.33;;;;;;;;5076933;28;45351;-85
2023/07/03 06:00:21;;;;;;;;;2.00;1.00;;;;;;;;5076815;27;45668;-85
2023/07/03 06:02:47;;;;;;;;;1.00;0.75;;;;;;;;5077120;27;45305;-85
2023/07/03 06:05:13;;;;;;;;;2.75;1.25;;;;;;;;5076947;27;47428;-85
2023/07/03 06:07:39;;;;;;;;;0.75;0.75;;;;;;;;5076617;28;45329;-84
2023/07/03 06:10:05;;;;;;;;;2.00;1.00;;;;;;;;5076745;27;45441;-85
2023/07/03 06:12:30;;;;;;;;;2.75;1.00;;;;;;;;5077155;27;45508;-85
2023/07/03 06:14:56;;;;;;;;;3.33;2.00;;;;;;;;5075003;28;48035;-84
2023/07/03 06:17:22;;;;;;;;;1.00;1.00;;;;;;;;5076131;27;45380;-85
2023/07/03 06:19:47;;;;;;;;;3.50;1.50;;;;;;;;5076900;27;45343;-85
2023/07/03 06:22:12;;;;;;;;;3.00;0.67;;;;;;;;5076868;28;45406;-84
2023/07/03 06:24:37;;;;;;;;;1.67;1.67;;;;;;;;5076018;27;47197;-85
2023/07/03 06:27:03;;;;;;;;;6.67;2.00;;;;;;;;5075199;28;45414;-86
2023/07/03 06:29:28;;;;;;;;;1.00;1.00;;;;;;;;5076756;27;45390;-85
2023/07/03 06:31:54;;;;;;;;;0.67;0.67;;;;;;;;5076605;28;45414;-84
2023/07/03 06:34:19;;;;;;;;;3.00;0.67;;;;;;;;5076398;28;46126;-84
2023/07/03 06:36:44;;;;;;;;;2.33;1.67;;;;;;;;5076270;28;45574;-85
2023/07/03 06:39:09;;;;;;;;;3.00;1.00;;;;;;;;5076379;28;45386;-85
2023/07/03 06:41:35;;;;;;;;;1.50;0.75;;;;;;;;5075302;28;45533;-84
2023/07/03 06:44:01;;;;;;;;;3.50;1.00;;;;;;;;5075788;28;45595;-84
2023/07/03 06:46:26;;;;;;;;;2.75;1.00;;;;;;;;5075573;27;46167;-82
2023/07/03 06:48:55;;;;;;;;;2.00;0.00;;;;;;;;5076518;28;46908;-81
2023/07/03 06:51:20;;;;;;;;;1.00;0.00;;;;;;;;5074300;28;45401;-83
2023/07/03 06:53:46;;;;;;;;;4.00;1.00;;;;;;;;5075865;28;45371;-83
2023/07/03 06:56:11;;;;;;;;;1.67;1.00;;;;;;;;5075235;28;45254;-81
2023/07/03 06:58:36;;;;;;;;;0.00;0.00;;;;;;;;5075614;28;45604;-83
2023/07/03 07:01:05;;;;;;;;;4.00;1.00;;;;;;;;5075710;27;45451;-83
2023/07/03 07:03:30;;;;;;;;;2.25;1.00;;;;;;;;5071834;27;45600;-83
2023/07/03 07:05:55;;;;;;;;;1.00;1.00;;;;;;;;5073945;27;45595;-84
2023/07/03 07:08:21;;;;;;;;;2.67;1.00;;;;;;;;5074045;28;45335;-82
2023/07/03 07:10:46;;;;;;;;;2.00;1.00;;;;;;;;5074112;28;45623;-82
2023/07/03 07:13:12;;;;;;;;;1.00;1.00;;;;;;;;5075648;27;47006;-82
2023/07/03 07:15:38;;;;;;;;;2.00;1.00;;;;;;;;5078026;27;45464;-81
2023/07/03 07:18:04;;;;;;;;;0.00;0.00;;;;;;;;5071171;27;45439;-80
2023/07/03 07:20:30;;;;;;;;;1.00;1.00;;;;;;;;5071739;27;45445;-81
2023/07/03 07:22:55;;;;;;;;;0.67;0.67;;;;;;;;5073512;27;47383;-80
2023/07/03 07:25:20;;;;;;;;;2.00;1.00;;;;;;;;5074959;27;45300;-80
2023/07/03 07:27:45;;;;;;;;;1.67;1.00;;;;;;;;5075981;27;45534;-80
2023/07/03 07:30:11;;;;;;;;;1.00;1.00;;;;;;;;5078363;27;45330;-80
2023/07/03 07:32:36;;;;;;;;;3.00;1.50;;;;;;;;5068162;27;45659;-80
2023/07/03 07:35:01;;;;;;;;;1.67;1.00;;;;;;;;5075557;27;45794;-80
2023/07/03 07:37:27;;;;;;;;;2.00;0.67;;;;;;;;5073519;28;45826;-80
2023/07/03 07:39:52;;;;;;;;;2.00;1.00;;;;;;;;5073674;27;45453;-81
2023/07/03 07:42:17;;;;;;;;;2.33;1.33;;;;;;;;5080835;27;46153;-80
2023/07/03 07:44:42;;;;;;;;;1.00;1.00;;;;;;;;5075893;27;45507;-81
2023/07/03 07:47:09;;;;;;;;;1.00;1.00;;;;;;;;5078839;27;45538;-79
2023/07/03 07:49:35;;;;;;;;;1.00;1.00;;;;;;;;5075084;27;45519;-80
2023/07/03 07:52:00;;;;;;;;;3.50;1.00;;;;;;;;5073159;27;46119;-82
2023/07/03 07:54:25;;;;;;;;;1.00;1.00;;;;;;;;5066096;27;45496;-80
2023/07/03 07:56:50;;;;;;;;;1.00;1.00;;;;;;;;5075084;27;45553;-79
2023/07/03 07:59:16;;;;;;;;;2.33;1.33;;;;;;;;5059620;28;45490;-81
2023/07/03 08:01:41;;;;;;;;;1.25;1.00;;;;;;;;5073679;28;46136;-81
2023/07/03 08:04:07;;;;;;;;;1.33;1.33;;;;;;;;5069520;28;45396;-80
2023/07/03 08:06:32;;;;;;;;;2.00;1.00;;;;;;;;5074335;28;45825;-79
2023/07/03 08:08:57;;;;;;;;;0.00;0.00;;;;;;;;5071435;28;45523;-80
2023/07/03 08:11:24;;;;;;;;;1.67;0.67;;;;;;;;5070681;28;46164;-81
2023/07/03 08:13:49;;;;;;;;;0.75;0.75;;;;;;;;5068217;28;45372;-83
2023/07/03 08:16:15;;;;;;;;;2.00;1.00;;;;;;;;5069393;28;45261;-81
2023/07/03 08:18:40;;;;;;;;;3.00;1.00;;;;;;;;5055077;28;45396;-82
2023/07/03 08:21:06;;;;;;;;;3.00;1.00;;;;;;;;5065876;28;46304;-82
2023/07/03 08:37:18;;;;;;;;;1.00;1.00;;;;;22.92;100.00;101182.53;5140083;27;45448;-81
2023/07/03 08:39:44;;;;;;;;;1.00;0.50;;;;;22.92;100.00;101192.28;5125739;27;53557;-81
2023/07/03 08:42:19;;;;;;;;;1.75;1.50;;;;;22.85;100.00;101178.63;5099917;27;68480;-81
2023/07/03 08:44:44;;;;;;;;;4.25;2.50;;;;;22.80;100.00;101184.25;5119603;27;45452;-81
2023/07/03 08:47:15;;;;;;;;;2.00;2.00;;;;;22.84;100.00;101194.66;5122477;27;47137;-81
2023/07/03 08:49:41;;;;;;;;;5.00;1.75;;;;;22.90;100.00;101192.41;5112076;27;45638;-81
2023/07/03 08:52:07;;;;;;;;;5.50;2.25;;;;;23.00;100.00;101205.84;5106678;27;45501;-81
2023/07/03 08:54:35;;;;;;;;;6.00;2.75;;;;;22.90;100.00;101197.72;5105308;27;45490;-80
2023/07/03 08:57:02;;;;;;;;;2.25;1.00;;;;;22.78;100.00;101191.47;5106191;27;47540;-77
2023/07/03 08:59:28;;;;;;;;;1.00;1.00;;;;;22.78;100.00;101201.25;5108430;27;45554;-79
2023/07/03 09:02:08;;;;;;;;;1.00;1.00;;;;;22.61;100.00;101195.38;5120997;27;45557;-78
2023/07/03 09:05:09;;;;;;;;;1.25;1.00;;;;;22.53;100.00;101189.78;5120888;27;45281;-79
2023/07/03 09:07:41;;;;;;;;;3.00;2.00;;;;;22.55;100.00;101201.13;5127479;27;45505;-78
2023/07/03 09:10:31;;;;;;;;;2.00;1.25;;;;;22.74;100.00;101200.63;5113590;27;45744;-78
2023/07/03 09:13:11;;;;;;;;;3.00;1.00;;;;;22.95;100.00;101198.19;5114171;27;45444;-78
2023/07/03 09:15:38;;;;;;;;;1.00;1.00;;;;;23.16;100.00;101197.59;5128715;27;45578;-78
2023/07/03 09:18:10;;;;;;;;;4.00;1.75;;;;;23.41;100.00;101207.22;5105709;27;46505;-79
2023/07/03 09:20:35;;;;;;;;;1.25;1.25;;;;;23.60;100.00;101189.88;5114142;27;45522;-78
2023/07/03 09:23:08;;;;;;;;;3.50;1.50;;;;;23.78;100.00;101191.97;5112917;27;65287;-78
2023/07/03 09:25:53;;;;;;;;;3.75;1.00;;;;;23.87;100.00;101193.09;5132483;27;45364;-78
2023/07/03 09:28:19;;;;;;;;;1.50;1.25;;;;;23.90;100.00;101192.88;5091997;27;47550;-81
2023/07/03 09:30:44;;;;;;;;;3.00;0.00;;;;;23.93;100.00;101200.59;5104613;27;56133;-79
2023/07/03 09:33:09;;;;;;;;;2.00;1.25;;;;;24.05;100.00;101196.13;5102737;27;61797;-79
2023/07/03 09:35:40;;;;;;;;;1.75;1.25;;;;;24.19;100.00;101194.19;5123945;27;45522;-79
2023/07/03 09:38:14;;;;;;;;;1.75;1.50;;;;;24.32;100.00;101193.09;5106033;27;46375;-79
2023/07/03 09:40:42;;;;;;;;;0.75;0.75;;;;;24.39;100.00;101197.94;5092285;27;45351;-79
2023/07/03 09:43:18;;;;;;;;;2.75;1.75;;;;;24.46;100.00;101193.78;5102134;27;45629;-80
2023/07/03 09:45:44;;;;;;;;;2.00;0.50;;;;;24.48;100.00;101191.84;5096194;27;45471;-80
2023/07/03 09:48:17;;;;;;;;;3.00;2.00;;;;;24.56;100.00;101199.25;5105986;27;46320;-82
2023/07/03 09:50:43;;;;;;;;;2.75;1.00;;;;;24.44;100.00;101193.94;5114386;27;45308;-82
2023/07/03 09:53:15;;;;;;;;;0.25;0.00;;;;;24.36;100.00;101204.31;5096485;27;45417;-81
2023/07/03 09:55:40;;;;;;;;;2.00;1.50;;;;;24.26;100.00;101192.75;5082527;27;45429;-83
2023/07/03 09:58:16;;;;;;;;;1.50;0.00;;;;;24.34;100.00;101198.28;5076725;27;67772;-81
2023/07/03 10:00:48;;;;;;;;;2.75;0.75;;;;;24.47;100.00;101200.81;5095400;27;45408;-82
2023/07/03 10:03:13;;;;;;;;;3.25;1.25;;;;;24.55;100.00;101214.38;5118316;27;45435;-82
2023/07/03 10:05:41;;;;;;;;;0.50;0.25;;;;;24.54;100.00;101208.19;5113687;27;45439;-82
2023/07/03 10:08:09;;;;;;;;;2.50;0.00;;;;;24.72;100.00;101205.88;5111912;27;45526;-82
2023/07/03 10:10:34;;;;;;;;;1.50;0.75;;;;;24.86;100.00;101206.56;5111353;27;45421;-80
2023/07/03 10:13:28;;;;;;;;;0.00;0.00;;;;;24.88;100.00;101209.94;5085131;27;46066;-80
2023/07/03 10:15:55;;;;;;;;;3.00;1.25;;;;;24.79;100.00;101213.34;5099865;27;45511;-80
2023/07/03 10:18:26;;;;;;;;;0.75;0.75;;;;;24.75;100.00;101218.06;5099341;27;47381;-80
2023/07/03 10:20:52;;;;;;;;;1.50;0.50;;;;;24.67;100.00;101212.53;5089524;27;45570;-80
2023/07/03 10:23:23;;;;;;;;;2.00;0.75;;;;;24.78;100.00;101217.00;5081970;27;66843;-80
2023/07/03 10:25:53;;;;;;;;;0.75;0.00;;;;;24.76;98.81;101225.09;5082783;27;45428;-80
2023/07/03 10:28:24;;;;;;;;;1.50;0.00;;;;;24.73;97.28;101220.84;5089683;27;45623;-79
2023/07/03 10:30:53;;;;;;;;;1.50;0.75;;;;;24.83;96.92;101217.44;5092752;27;45478;-80
2023/07/03 10:33:24;;;;;;;;;1.75;0.00;;;;;24.95;94.86;101213.78;5081642;27;45506;-79
2023/07/03 10:35:50;;;;;;;;;3.00;0.25;;;;;25.03;91.78;101218.47;5093078;27;45528;-79
2023/07/03 10:38:35;;;;;;;;;1.50;0.50;;;;;25.00;90.13;101208.94;5084623;27;46396;-79
2023/07/03 10:41:17;;;;;;;;;1.25;0.00;;;;;24.95;90.90;101210.28;5109103;27;45633;-79
2023/07/03 10:43:55;;;;;;;;;2.00;1.00;;;;;25.12;88.01;101205.22;5088483;27;45431;-81
2023/07/03 10:46:36;;;;;;;;;1.00;0.50;;;;;25.24;80.64;101207.88;5102966;27;45486;-80
2023/07/03 10:49:05;;;;;;;;;0.00;0.00;;;;;25.18;76.93;101211.88;5082522;27;46639;-80
2023/07/03 10:51:39;;;;;;;;;0.75;0.50;;;;;25.16;74.41;101208.50;5090116;27;45758;-80
2023/07/03 10:54:30;;;;;;;;;1.00;0.00;;;;;25.32;70.30;101208.09;5098742;27;45391;-79
2023/07/03 10:56:59;;;;;;;;;0.00;0.00;;;;;25.29;67.03;101203.84;5092950;27;45420;-80
2023/07/03 10:59:29;;;;;;;;;1.00;1.00;;;;;25.30;67.99;101205.56;5096593;27;45569;-81
2023/07/03 11:02:09;;;;;;;;;1.00;0.00;;;;;25.35;66.32;101201.66;5097368;27;46703;-79
2023/07/03 11:04:41;;;;;;;;;2.00;0.25;;;;;25.34;67.36;101200.81;5102839;27;45632;-82
2023/07/03 11:07:29;;;;;;;;;1.00;1.00;;;;;25.45;67.06;101205.25;5096964;27;45612;-82
2023/07/03 11:10:02;;;;;;;;;0.00;0.00;;;;;25.54;65.71;101200.94;5092823;27;45515;-83
2023/07/03 11:12:36;;;;;;;;;2.00;0.00;;;;;25.60;66.51;101203.09;5109537;27;45352;-80
2023/07/03 11:15:23;;;;;;;;;1.00;0.00;;;;;25.68;62.46;101205.94;5083636;27;45506;-84
2023/07/03 11:18:08;;;;;;;;;0.00;0.00;;;;;25.81;63.25;101203.06;5088105;27;45603;-82
2023/07/03 11:20:40;;;;;;;;;0.00;0.00;;;;;25.88;59.86;101206.91;5096146;27;47433;-81
2023/07/03 11:23:30;;;;;;;;;2.00;0.00;;;;;25.86;59.28;101207.03;5082464;27;45610;-83
2023/07/03 11:26:07;;;;;;;;;1.00;0.75;;;;;25.83;58.66;101201.94;5108586;27;45471;-85
2023/07/03 11:28:41;;;;;;;;;1.00;0.00;;;;;25.91;58.36;101217.31;5109583;27;45232;-81
2023/07/03 11:31:07;;;;;;;;;0.00;0.00;;;;;26.06;57.77;101210.66;5097604;27;46165;-81
2023/07/03 11:33:34;;;;;;;;;0.00;0.00;;;;;26.38;57.67;101211.50;5078813;27;45679;-80
2023/07/03 11:36:00;;;;;;;;;0.00;0.00;;;;;27.46;56.49;101207.97;5095646;27;45365;-80
2023/07/03 11:38:27;;;;;;;;;3.00;0.00;;;;;30.25;59.54;101212.63;5088342;27;45440;-79
2023/07/03 11:40:55;;;;;;;;;0.00;0.00;;;;;32.89;51.48;101219.41;5109687;27;45960;-81
2023/07/03 11:43:22;;;;;;;;;0.25;0.00;;;;;35.02;40.91;101219.69;5099672;27;45305;-81
2023/07/03 11:46:03;;;;;;;;;0.00;0.00;;;;;36.74;37.90;101204.69;5110885;27;45576;-80
2023/07/03 11:48:33;;;;;;;;;0.00;0.00;;;;;38.20;34.93;101213.72;5087756;27;45510;-80
2023/07/03 11:51:01;;;;;;;;;0.00;0.00;;;;;39.44;31.63;101216.03;5091387;27;46623;-81
2023/07/03 11:53:51;;;;;;;;;1.00;0.00;;;;;40.88;29.97;101239.22;5097114;27;45729;-81
2023/07/03 11:56:33;;;;;;;;;0.00;0.00;;;;;42.01;26.28;101239.13;5082489;27;45479;-81
2023/07/03 11:59:03;;;;;;;;;0.00;0.00;;;;;43.00;25.48;101235.25;5095735;27;45543;-82
2023/07/03 12:01:31;;;;;;;;;0.00;0.00;;;;;43.66;25.10;101224.47;5077028;27;46214;-81
2023/07/03 12:03:59;;;;;;;;;1.00;0.00;;;;;44.55;23.31;101234.31;5107195;27;45682;-80
2023/07/03 12:06:39;;;;;;;;;1.00;0.00;;;;;44.82;21.80;101245.28;5073469;27;45609;-81
2023/07/03 12:09:27;;;;;;;;;1.50;0.00;;;;;44.98;20.04;101245.44;5093563;27;45613;-80
2023/07/03 12:12:03;;;;;;;;;0.00;0.00;;;;;45.45;21.76;101250.16;5082010;27;45824;-82
2023/07/03 12:14:40;;;;;;;;;0.00;0.00;;;;;46.24;18.44;101251.06;5107682;27;45530;-81
2023/07/03 12:17:31;;;;;;;;;1.25;0.00;;;;;46.17;18.86;101253.25;5105047;27;45464;-80
2023/07/03 12:20:11;;;;;;;;;0.00;0.00;;;;;46.36;18.09;101246.16;5079745;27;45526;-83
2023/07/03 12:22:42;;;;;;;;;1.25;0.00;;;;;46.45;17.41;101240.09;5083349;27;47034;-80
2023/07/03 12:25:08;;;;;;;;;0.00;0.00;;;;;46.58;18.18;101253.34;5081821;27;45688;-80
2023/07/03 12:27:35;;;;;;;;;0.00;0.00;;;;;46.32;17.37;101244.22;5091807;27;45324;-81
2023/07/03 12:30:01;;;;;;;;;0.00;0.00;;;;;46.08;17.18;101235.63;5080262;27;45710;-79
2023/07/03 12:32:29;;;;;;;;;0.00;0.00;;;;;46.05;18.00;101230.66;5077602;27;46624;-79
2023/07/03 12:35:17;;;;;;;;;1.00;0.00;;;;;45.77;17.50;101239.06;5081145;27;45591;-81
2023/07/03 12:37:45;;;;;;;;;0.00;0.00;;;;;45.73;17.57;101243.47;5093852;27;45472;-81
2023/07/03 12:40:15;;;;;;;;;2.00;0.00;;;;;45.76;17.33;101234.66;5087195;27;45474;-81
2023/07/03 12:42:45;;;;;;;;;0.00;0.00;;;;;45.46;17.40;101235.31;5093923;27;47193;-80
2023/07/03 12:45:19;;;;;;;;;1.00;0.50;;;;;45.02;17.96;101230.06;5077218;27;45786;-81
2023/07/03 12:48:06;;;;;;;;;1.00;1.00;;;;;44.66;18.50;101240.75;5110920;27;45777;-79
2023/07/03 12:50:33;;;;;;;;;1.75;0.00;;;;;44.37;17.43;101231.91;5104762;27;45477;-79
2023/07/03 12:53:00;;;;;;;;;2.00;0.00;;;;;43.85;17.98;101233.22;5082176;27;46440;-81
2023/07/03 12:55:27;;;;;;;;;0.00;0.00;;;;;43.68;17.94;101233.25;5083291;27;45495;-82
2023/07/03 12:57:54;;;;;;;;;0.75;0.00;;;;;43.53;18.33;101227.59;5093734;27;45459;-80
2023/07/03 13:00:25;;;;;;;;;0.25;0.00;;;;;43.77;19.13;101214.50;5096014;27;45415;-79
2023/07/03 13:02:56;;;;;;;;;1.75;0.75;;;;;43.86;17.98;101216.53;5082454;27;46678;-79
2023/07/03 13:05:22;;;;;;;;;2.00;0.00;;;;;44.14;18.86;101231.13;5093166;27;45610;-80
2023/07/03 13:07:48;;;;;;;;;1.25;1.25;;;;;44.54;18.21;101221.72;5105272;27;45422;-78
2023/07/03 13:10:17;;;;;;;;;3.75;2.75;;;;;44.37;17.30;101216.28;5091360;27;60937;-81
2023/07/03 13:12:43;;;;;;;;;3.00;1.00;;;;;44.23;16.69;101223.28;5113976;27;45536;-79
2023/07/03 13:15:31;;;;;;;;;0.25;0.00;;;;;43.88;17.11;101219.84;5086496;27;45840;-79
2023/07/03 13:18:19;;;;;;;;;0.00;0.00;;;;;43.95;17.61;101213.31;5115426;27;45320;-79
2023/07/03 13:20:56;;;;;;;;;1.25;0.00;;;;;44.54;17.04;101210.72;5117502;27;45498;-79
2023/07/03 13:23:40;;;;;;;;;0.00;0.00;;;;;44.63;16.78;101209.16;5093275;27;46501;-79
2023/07/03 13:26:08;;;;;;;;;0.75;0.00;;;;;44.72;17.71;101201.25;5095747;27;45537;-79
2023/07/03 13:28:38;;;;;;;;;0.00;0.00;;;;;45.30;17.49;101204.16;5094628;27;45584;-78
2023/07/03 13:31:11;;;;;;;;;0.00;0.00;;;;;45.89;16.27;101189.34;5108585;27;45797;-79
2023/07/03 13:33:38;;;;;;;;;0.75;0.00;;;;;46.34;17.59;101185.06;5109395;27;46210;-78
2023/07/03 13:36:33;;;;;;;;;0.00;0.00;;;;;46.71;16.26;101189.47;5102565;27;45309;-79
2023/07/03 13:39:05;;;;;;;;;0.75;0.00;;;;;46.63;15.59;101184.53;5106177;27;45403;-79